Time;durP1;ratioP1;P1;durP2;ratioP2;P2;SDS_P1;SDS_P2;PMS_P1;PMS_P2;Temp;Humidity;BMP_temperature;BMP_pressure;BME280_temperature;BME280_humidity;BME280_pressure;Samples;Min_cycle;Max_cycle;Signal;HPM_P1;HPM_P2
2023/10/21 00:01:13;;;;;;;2.72;0.40;;;12.50;99.90;;;;;;5032943;28;20504;-58
2023/10/21 00:03:40;;;;;;;0.40;0.40;;;12.50;99.90;;;;;;5032298;28;20409;-58
2023/10/21 00:06:07;;;;;;;0.98;0.30;;;12.50;99.90;;;;;;5030216;28;20109;-57
2023/10/21 00:08:33;;;;;;;3.95;0.50;;;12.50;99.90;;;;;;5022717;28;20050;-57
2023/10/21 00:11:05;;;;;;;0.45;0.30;;;12.40;99.90;;;;;;5013961;28;20557;-55
2023/10/21 00:13:32;;;;;;;0.40;0.32;;;12.40;99.90;;;;;;5028790;28;20458;-58
2023/10/21 00:15:59;;;;;;;;;;;12.40;99.90;;;;;;5032677;28;20433;-58
2023/10/21 00:18:26;;;;;;;0.40;0.30;;;12.40;99.90;;;;;;5031693;28;20015;-58
2023/10/21 00:20:54;;;;;;;2.05;0.40;;;12.40;99.90;;;;;;5032454;28;20041;-58
2023/10/21 00:23:22;;;;;;;2.75;0.77;;;12.50;99.90;;;;;;5023781;28;20036;-57
2023/10/21 00:25:49;;;;;;;1.27;0.80;;;12.30;99.90;;;;;;5032544;28;20037;-58
2023/10/21 00:28:16;;;;;;;3.03;0.60;;;12.00;99.90;;;;;;5029088;28;20036;-58
2023/10/21 00:30:45;;;;;;;3.88;0.50;;;11.80;99.90;;;;;;5010232;28;20052;-58
2023/10/21 00:33:13;;;;;;;0.47;0.30;;;11.70;99.90;;;;;;5022665;28;20049;-58
2023/10/21 00:35:44;;;;;;;0.60;0.40;;;11.70;99.90;;;;;;5025229;28;20041;-56
2023/10/21 00:38:12;;;;;;;0.98;0.20;;;11.70;99.90;;;;;;5030750;28;20053;-58
2023/10/21 00:40:49;;;;;;;0.47;0.30;;;11.80;99.90;;;;;;5013640;28;20262;-58
2023/10/21 00:43:40;;;;;;;0.28;0.20;;;11.80;99.90;;;;;;5013963;28;20132;-58
2023/10/21 00:46:11;;;;;;;0.45;0.45;;;11.90;99.90;;;;;;5025276;28;20406;-58
2023/10/21 00:48:39;;;;;;;0.77;0.30;;;11.90;99.90;;;;;;5019679;28;20472;-58
2023/10/21 00:51:06;;;;;;;1.83;0.30;;;11.90;99.90;;;;;;5015999;28;20041;-55
2023/10/21 00:53:34;;;;;;;1.08;0.22;;;11.90;99.90;;;;;;5018521;28;20406;-57
2023/10/21 00:56:01;;;;;;;0.50;0.30;;;11.90;99.90;;;;;;5011588;28;20111;-58
2023/10/21 00:58:31;;;;;;;;;;;11.90;99.90;;;;;;5032058;28;20045;-58
2023/10/21 01:01:01;;;;;;;0.35;0.30;;;11.80;99.90;;;;;;5030464;28;19959;-58
2023/10/21 01:03:30;;;;;;;0.95;0.40;;;11.80;99.90;;;;;;5012757;28;20041;-58
2023/10/21 01:05:57;;;;;;;0.25;0.20;;;11.80;99.90;;;;;;5031827;28;20046;-55
2023/10/21 01:08:24;;;;;;;0.75;0.30;;;11.80;99.90;;;;;;5013741;28;20101;-58
2023/10/21 01:10:51;;;;;;;3.10;0.30;;;11.80;99.90;;;;;;5031782;28;20075;-57
2023/10/21 01:13:18;;;;;;;0.17;0.17;;;11.80;99.90;;;;;;5030244;28;20120;-57
2023/10/21 01:15:45;;;;;;;;;;;11.70;99.90;;;;;;5014243;28;20140;-57
2023/10/21 01:18:13;;;;;;;0.50;0.28;;;11.70;99.90;;;;;;5013535;28;19921;-58
2023/10/21 01:20:41;;;;;;;1.13;0.30;;;11.50;99.90;;;;;;5027055;28;20099;-58
2023/10/21 01:23:08;;;;;;;0.32;0.20;;;11.40;99.90;;;;;;5031178;28;20465;-57
2023/10/21 01:25:35;;;;;;;0.77;0.20;;;11.40;99.90;;;;;;5013468;28;20045;-59
2023/10/21 01:28:02;;;;;;;3.00;0.20;;;11.30;99.90;;;;;;5013395;28;20145;-55
2023/10/21 01:30:29;;;;;;;1.88;0.20;;;11.30;99.90;;;;;;5021906;28;20037;-55
2023/10/21 01:32:56;;;;;;;0.82;0.40;;;11.20;99.90;;;;;;5013504;28;20049;-54
2023/10/21 01:35:23;;;;;;;3.17;0.50;;;11.20;99.90;;;;;;4996168;28;20051;-54
2023/10/21 01:37:50;;;;;;;1.70;0.75;;;11.20;99.90;;;;;;5013502;28;20119;-55
2023/10/21 01:40:16;;;;;;;0.82;0.60;;;11.10;99.90;;;;;;5004941;28;20057;-54
2023/10/21 01:42:43;;;;;;;0.98;0.52;;;11.20;99.90;;;;;;5031047;28;20056;-54
2023/10/21 01:45:10;;;;;;;2.13;0.75;;;11.10;99.90;;;;;;5011862;28;20418;-58
2023/10/21 01:47:37;;;;;;;1.88;0.73;;;11.00;99.90;;;;;;5025375;28;20041;-54
2023/10/21 01:50:08;;;;;;;1.23;0.50;;;10.90;99.90;;;;;;5016756;28;20047;-55
2023/10/21 01:52:36;;;;;;;0.93;0.63;;;10.90;99.90;;;;;;5017428;28;20033;-54
2023/10/21 01:55:08;;;;;;;1.63;0.30;;;10.80;99.90;;;;;;5033859;28;20044;-58
2023/10/21 01:57:35;;;;;;;0.30;0.20;;;10.90;99.90;;;;;;5031369;28;20041;-58
2023/10/21 02:00:08;;;;;;;0.50;0.25;;;10.90;99.90;;;;;;5017385;28;20099;-54
2023/10/21 02:02:39;;;;;;;1.20;0.38;;;10.90;99.90;;;;;;5027280;28;20041;-54
2023/10/21 02:05:06;;;;;;;2.40;0.25;;;10.90;99.90;;;;;;5017021;28;20041;-58
2023/10/21 02:07:36;;;;;;;0.20;0.20;;;10.90;99.90;;;;;;5022253;28;20033;-55
2023/10/21 02:10:04;;;;;;;0.55;0.30;;;10.90;99.90;;;;;;5035083;28;20550;-57
2023/10/21 02:12:31;;;;;;;;;;;10.90;99.90;;;;;;5017246;28;20041;-56
2023/10/21 02:14:58;;;;;;;0.55;0.30;;;10.90;99.90;;;;;;5017010;28;19932;-56
2023/10/21 02:17:25;;;;;;;1.23;0.50;;;10.70;99.90;;;;;;5015317;28;20049;-56
2023/10/21 02:19:56;;;;;;;0.75;0.40;;;10.50;99.90;;;;;;5016803;28;20510;-58
2023/10/21 02:22:26;;;;;;;0.75;0.50;;;10.30;99.90;;;;;;5017034;28;20386;-56
2023/10/21 02:24:54;;;;;;;1.17;0.70;;;10.30;99.90;;;;;;5014681;28;20120;-58
2023/10/21 02:27:21;;;;;;;1.70;1.08;;;10.30;99.90;;;;;;5027599;28;20664;-58
2023/10/21 02:29:49;;;;;;;0.85;0.63;;;10.40;99.90;;;;;;5016319;28;20037;-54
2023/10/21 02:32:16;;;;;;;1.45;0.90;;;10.40;99.90;;;;;;5033451;28;20042;-58
2023/10/21 02:34:43;;;;;;;1.13;0.60;;;10.50;99.90;;;;;;5001867;28;20053;-56
2023/10/21 02:37:09;;;;;;;2.15;0.68;;;10.50;99.90;;;;;;5016524;28;20154;-56
2023/10/21 02:39:37;;;;;;;2.28;0.70;;;10.50;99.90;;;;;;5016404;28;20055;-58
2023/10/21 02:42:04;;;;;;;1.48;0.95;;;10.50;99.90;;;;;;5027611;28;20546;-56
2023/10/21 02:44:31;;;;;;;2.67;0.80;;;10.50;99.90;;;;;;5028127;28;20502;-58
2023/10/21 02:46:59;;;;;;;1.40;0.60;;;10.50;99.90;;;;;;5016004;28;20042;-58
2023/10/21 02:49:26;;;;;;;3.50;0.75;;;10.50;99.90;;;;;;5023863;28;20048;-57
2023/10/21 02:51:52;;;;;;;1.77;1.00;;;10.50;99.90;;;;;;5016465;28;20073;-57
2023/10/21 02:54:19;;;;;;;1.83;0.88;;;10.50;99.90;;;;;;5033063;28;20521;-58
2023/10/21 02:56:46;;;;;;;1.35;1.00;;;10.50;99.90;;;;;;5016041;28;20049;-55
2023/10/21 02:59:13;;;;;;;3.33;0.80;;;10.50;99.90;;;;;;5032223;28;20084;-56
2023/10/21 03:01:40;;;;;;;0.47;0.38;;;10.50;99.90;;;;;;5026639;28;20049;-54
2023/10/21 03:04:07;;;;;;;1.80;0.60;;;10.30;99.90;;;;;;5033862;28;20041;-53
2023/10/21 03:06:36;;;;;;;;;;;10.20;99.90;;;;;;5025729;28;20122;-58
2023/10/21 03:09:06;;;;;;;3.08;0.65;;;10.10;99.90;;;;;;5016357;28;20023;-54
2023/10/21 03:11:34;;;;;;;2.35;0.90;;;10.00;99.90;;;;;;5030922;28;20490;-57
2023/10/21 03:14:01;;;;;;;1.23;0.93;;;9.90;99.90;;;;;;5033832;28;20041;-58
2023/10/21 03:16:28;;;;;;;2.55;0.80;;;9.90;99.90;;;;;;5028246;28;20495;-57
2023/10/21 03:18:54;;;;;;;1.75;0.80;;;9.90;99.90;;;;;;5033878;28;20041;-55
2023/10/21 03:21:21;;;;;;;2.25;0.90;;;9.80;99.90;;;;;;5015055;28;20049;-55
2023/10/21 03:23:48;;;;;;;3.67;0.63;;;9.60;99.90;;;;;;5031592;28;20061;-58
2023/10/21 03:26:15;;;;;;;2.90;0.70;;;9.60;99.90;;;;;;5025263;28;20061;-57
2023/10/21 03:28:43;;;;;;;0.52;0.43;;;9.60;99.90;;;;;;5012289;28;20511;-57
2023/10/21 03:31:11;;;;;;;4.28;0.65;;;9.60;99.90;;;;;;5029792;28;20045;-54
2023/10/21 03:33:38;;;;;;;1.65;0.60;;;9.60;99.90;;;;;;5012605;28;20810;-57
2023/10/21 03:36:05;;;;;;;2.13;0.68;;;9.60;99.90;;;;;;5029135;28;20041;-58
2023/10/21 03:38:32;;;;;;;2.65;0.60;;;9.60;99.90;;;;;;5033214;28;20046;-56
2023/10/21 03:41:04;;;;;;;1.85;0.50;;;9.60;99.90;;;;;;5032826;28;20464;-58
2023/10/21 03:43:32;;;;;;;3.40;0.20;;;9.60;99.90;;;;;;5030078;28;20049;-58
2023/10/21 03:46:03;;;;;;;2.83;0.40;;;9.60;99.90;;;;;;5032840;28;20038;-57
2023/10/21 03:48:31;;;;;;;0.20;0.20;;;9.60;99.90;;;;;;5032912;28;20493;-57
2023/10/21 03:51:17;;;;;;;0.93;0.38;;;9.50;99.90;;;;;;5027768;28;20132;-58
2023/10/21 03:53:44;;;;;;;2.17;0.47;;;9.50;99.90;;;;;;5032273;28;20045;-58
2023/10/21 03:56:11;;;;;;;;;;;9.50;99.90;;;;;;5033180;28;20053;-57
2023/10/21 03:58:40;;;;;;;2.67;0.50;;;9.50;99.90;;;;;;5032169;28;19926;-59
2023/10/21 04:01:07;;;;;;;2.17;0.60;;;9.30;99.90;;;;;;5029503;28;20053;-58
2023/10/21 04:03:35;;;;;;;1.55;0.30;;;9.10;99.90;;;;;;5032500;28;20156;-58
2023/10/21 04:06:02;;;;;;;0.60;0.30;;;9.00;99.90;;;;;;5032551;28;20049;-58
2023/10/21 04:08:30;;;;;;;3.97;0.50;;;9.10;99.90;;;;;;5027087;28;20042;-58
2023/10/21 04:10:57;;;;;;;5.75;0.70;;;9.20;99.90;;;;;;5028839;28;20041;-58
2023/10/21 04:13:24;;;;;;;1.13;0.40;;;9.20;99.90;;;;;;5032238;28;20500;-58
2023/10/21 04:15:52;;;;;;;1.33;0.32;;;9.30;99.90;;;;;;5032506;28;20045;-58
2023/10/21 04:18:18;;;;;;;1.17;0.38;;;9.30;99.90;;;;;;5032073;28;20506;-56
2023/10/21 04:20:46;;;;;;;0.30;0.30;;;9.30;99.90;;;;;;5026945;28;20045;-59
2023/10/21 04:23:13;;;;;;;0.60;0.22;;;9.30;99.90;;;;;;5031409;28;20053;-58
2023/10/21 04:25:40;;;;;;;0.75;0.40;;;9.30;99.90;;;;;;5012199;28;20065;-59
2023/10/21 04:28:07;;;;;;;0.43;0.35;;;9.30;99.90;;;;;;5033255;28;20397;-58
2023/10/21 04:30:34;;;;;;;0.30;0.30;;;9.20;99.90;;;;;;5031884;28;20125;-57
2023/10/21 04:33:02;;;;;;;3.10;0.50;;;9.20;99.90;;;;;;5030703;28;20043;-59
2023/10/21 04:35:29;;;;;;;;;;;9.20;99.90;;;;;;5032325;28;20030;-59
2023/10/21 04:37:57;;;;;;;3.10;0.60;;;9.20;99.90;;;;;;5032026;28;19960;-57
2023/10/21 04:40:24;;;;;;;0.30;0.30;;;9.10;99.90;;;;;;5032182;28;20056;-58
2023/10/21 04:42:51;;;;;;;1.55;0.40;;;9.10;99.90;;;;;;5026349;28;20041;-58
2023/10/21 04:45:18;;;;;;;5.93;0.40;;;9.10;99.90;;;;;;5032401;28;20426;-57
2023/10/21 04:47:45;;;;;;;;;;;9.10;99.90;;;;;;5024185;28;20044;-57
2023/10/21 04:50:12;;;;;;;1.40;0.70;;;9.00;99.90;;;;;;5040309;28;19940;-58
2023/10/21 04:52:39;;;;;;;0.73;0.40;;;9.00;99.90;;;;;;5030802;28;20421;-58
2023/10/21 04:55:06;;;;;;;0.93;0.30;;;9.00;99.90;;;;;;5032235;28;20394;-57
2023/10/21 04:57:33;;;;;;;0.40;0.30;;;9.00;99.90;;;;;;5031497;28;20540;-58
2023/10/21 04:59:59;;;;;;;0.75;0.40;;;9.00;99.90;;;;;;5028066;28;20033;-58
2023/10/21 05:02:28;;;;;;;0.35;0.30;;;9.00;99.90;;;;;;5029637;28;20103;-57
2023/10/21 05:04:55;;;;;;;1.75;0.40;;;9.00;99.90;;;;;;5031176;28;20681;-59
2023/10/21 05:07:21;;;;;;;0.60;0.40;;;9.10;99.90;;;;;;5031408;28;20045;-58
2023/10/21 05:09:49;;;;;;;1.83;0.70;;;9.10;99.90;;;;;;5025271;28;20033;-58
2023/10/21 05:12:16;;;;;;;0.98;0.77;;;9.10;99.90;;;;;;5031805;28;20041;-58
2023/10/21 05:14:43;;;;;;;0.57;0.28;;;9.20;99.90;;;;;;5031362;28;20061;-59
2023/10/21 05:17:10;;;;;;;0.55;0.38;;;9.20;99.90;;;;;;5030636;28;20056;-58
2023/10/21 05:19:37;;;;;;;0.50;0.40;;;9.20;99.90;;;;;;5028479;28;20041;-58
2023/10/21 05:22:04;;;;;;;0.50;0.40;;;9.20;99.90;;;;;;5031806;28;20042;-59
2023/10/21 05:24:31;;;;;;;1.83;0.47;;;9.20;99.90;;;;;;5029695;28;20037;-58
2023/10/21 05:26:58;;;;;;;0.98;0.68;;;9.20;99.90;;;;;;5031536;28;20034;-57
2023/10/21 05:29:25;;;;;;;1.10;0.57;;;9.10;99.90;;;;;;5028582;28;20044;-56
2023/10/21 05:31:52;;;;;;;1.33;0.70;;;9.10;99.90;;;;;;5031604;28;20041;-59
2023/10/21 05:34:19;;;;;;;2.97;1.30;;;9.10;99.90;;;;;;5023493;28;20052;-57
2023/10/21 05:36:46;;;;;;;2.10;1.40;;;9.00;99.90;;;;;;5031274;28;20121;-59
2023/10/21 05:39:13;;;;;;;1.25;0.73;;;9.00;99.90;;;;;;5029803;28;20041;-58
2023/10/21 05:41:41;;;;;;;1.30;0.85;;;9.00;99.90;;;;;;5030570;28;20073;-58
2023/10/21 05:44:08;;;;;;;3.83;0.70;;;9.00;99.90;;;;;;5030572;28;20036;-58
2023/10/21 05:46:35;;;;;;;0.95;0.68;;;9.10;99.90;;;;;;5031038;28;20040;-58
2023/10/21 05:49:03;;;;;;;4.60;0.95;;;9.20;99.90;;;;;;5030328;28;20371;-59
2023/10/21 05:51:30;;;;;;;1.92;0.80;;;9.20;99.90;;;;;;5031304;28;20065;-59
2023/10/21 05:53:57;;;;;;;2.58;0.93;;;9.20;99.90;;;;;;5029680;28;20037;-58
2023/10/21 05:56:25;;;;;;;2.63;1.35;;;9.20;99.90;;;;;;5031265;28;20045;-57
2023/10/21 05:58:52;;;;;;;2.70;1.83;;;9.20;99.90;;;;;;5022493;28;20090;-58
2023/10/21 06:01:19;;;;;;;4.82;0.93;;;9.20;99.90;;;;;;5031337;28;20520;-57
2023/10/21 06:03:46;;;;;;;0.77;0.65;;;9.10;99.90;;;;;;5029762;28;20552;-59
2023/10/21 06:06:13;;;;;;;;;;;9.00;99.90;;;;;;5031782;28;20041;-58
2023/10/21 06:08:40;;;;;;;1.40;0.90;;;8.70;99.90;;;;;;5030633;28;19928;-57
2023/10/21 06:11:08;;;;;;;1.60;0.98;;;8.60;99.90;;;;;;5031223;28;20124;-58
2023/10/21 06:13:35;;;;;;;2.63;1.10;;;8.50;99.90;;;;;;5017963;28;20062;-58
2023/10/21 06:16:02;;;;;;;2.42;1.02;;;8.40;99.90;;;;;;5031201;28;20103;-58
2023/10/21 06:18:29;;;;;;;3.65;1.35;;;8.40;99.90;;;;;;5031007;28;20042;-59
2023/10/21 06:20:57;;;;;;;4.82;1.40;;;8.30;99.90;;;;;;5040169;28;20441;-57
2023/10/21 06:23:24;;;;;;;11.93;2.42;;;8.30;99.90;;;;;;5027029;28;20715;-59
2023/10/21 06:25:51;;;;;;;5.97;2.83;;;8.40;99.90;;;;;;5030964;28;20037;-57
2023/10/21 06:28:18;;;;;;;3.95;1.98;;;8.50;99.90;;;;;;5034587;28;20533;-57
2023/10/21 06:30:44;;;;;;;6.38;2.70;;;8.50;99.90;;;;;;5030331;28;20046;-59
2023/10/21 06:33:12;;;;;;;4.45;2.33;;;8.70;99.90;;;;;;5032145;28;20045;-57
2023/10/21 06:35:39;;;;;;;;;;;8.80;99.90;;;;;;5042985;28;20088;-59
2023/10/21 06:38:07;;;;;;;5.32;2.60;;;8.90;99.90;;;;;;5032888;28;19924;-58
2023/10/21 06:40:34;;;;;;;5.38;2.08;;;9.00;99.90;;;;;;5040374;28;20068;-58
2023/10/21 06:43:22;;;;;;;4.40;1.88;;;9.10;99.90;;;;;;5031518;28;20038;-56
2023/10/21 06:45:50;;;;;;;3.30;2.00;;;9.10;99.90;;;;;;5009668;28;20445;-58
2023/10/21 06:48:17;;;;;;;6.15;2.30;;;9.20;99.90;;;;;;5029929;28;20049;-58
2023/10/21 06:50:44;;;;;;;3.53;1.90;;;9.30;99.90;;;;;;5023826;28;20447;-58
2023/10/21 06:53:11;;;;;;;5.65;2.08;;;9.30;99.90;;;;;;5026187;28;20045;-59
2023/10/21 06:55:42;;;;;;;3.17;1.70;;;9.30;99.90;;;;;;5027265;28;20159;-59
2023/10/21 06:58:10;;;;;;;5.13;1.90;;;9.30;99.90;;;;;;5026133;28;20043;-59
2023/10/21 07:00:37;;;;;;;4.28;1.55;;;9.30;99.90;;;;;;5026246;28;20108;-58
2023/10/21 07:03:04;;;;;;;;;;;9.30;99.90;;;;;;5026300;28;20049;-57
2023/10/21 07:05:31;;;;;;;2.97;1.50;;;9.30;99.90;;;;;;5025123;28;20307;-58
2023/10/21 07:07:58;;;;;;;4.63;2.20;;;9.20;99.90;;;;;;5026285;28;20072;-57
2023/10/21 07:10:29;;;;;;;4.43;2.15;;;9.30;99.90;;;;;;5025816;28;20045;-59
2023/10/21 07:12:56;;;;;;;2.05;1.77;;;9.10;99.90;;;;;;5018783;28;20092;-59
2023/10/21 07:15:25;;;;;;;4.63;2.25;;;9.20;99.90;;;;;;5025572;28;20049;-56
2023/10/21 07:17:52;;;;;;;10.07;3.05;;;9.20;99.90;;;;;;5027282;28;20045;-59
2023/10/21 07:20:20;;;;;;;8.93;2.95;;;9.40;99.90;;;;;;5025041;28;20052;-58
2023/10/21 07:22:49;;;;;;;5.50;2.63;;;9.50;99.90;;;;;;5025966;28;20501;-58
2023/10/21 07:25:18;;;;;;;5.63;2.75;;;9.60;99.90;;;;;;5021620;28;20108;-59
2023/10/21 07:27:46;;;;;;;6.38;2.58;;;9.80;99.90;;;;;;5020398;28;20506;-58
2023/10/21 07:30:14;;;;;;;4.07;2.65;;;9.90;99.90;;;;;;5024120;28;20049;-58
2023/10/21 07:32:41;;;;;;;7.97;3.85;;;10.00;99.90;;;;;;5018550;28;20131;-59
2023/10/21 07:35:09;;;;;;;5.57;3.08;;;10.00;99.90;;;;;;5023456;28;20120;-59
2023/10/21 07:37:36;;;;;;;5.38;3.08;;;10.20;99.90;;;;;;5006131;28;20052;-58
2023/10/21 07:40:05;;;;;;;4.88;2.38;;;10.30;99.90;;;;;;5022492;28;20049;-59
2023/10/21 07:42:32;;;;;;;5.47;2.80;;;10.60;99.90;;;;;;5020683;28;20053;-58
2023/10/21 07:44:59;;;;;;;7.57;2.75;;;10.90;99.90;;;;;;5018173;28;20391;-59
2023/10/21 07:47:28;;;;;;;3.38;1.98;;;11.00;99.90;;;;;;5020907;28;20061;-58
2023/10/21 07:49:54;;;;;;;5.47;2.65;;;11.00;99.90;;;;;;5003535;28;20068;-59
2023/10/21 07:52:22;;;;;;;4.75;2.42;;;11.10;99.90;;;;;;5026371;28;20041;-59
2023/10/21 07:54:49;;;;;;;;;;;11.20;99.90;;;;;;5028583;28;20099;-59
2023/10/21 07:57:16;;;;;;;8.20;2.00;;;11.30;99.90;;;;;;5022589;28;20474;-59
2023/10/21 07:59:44;;;;;;;10.40;2.03;;;11.40;99.90;;;;;;5024483;28;20042;-60
2023/10/21 08:02:12;;;;;;;4.00;2.47;;;11.50;99.90;;;;;;5024449;28;20491;-58
2023/10/21 08:04:39;;;;;;;3.42;2.53;;;11.60;99.90;;;;;;5023635;28;20046;-60
2023/10/21 08:07:06;;;;;;;7.15;2.70;;;11.80;99.90;;;;;;5023935;28;20038;-59
2023/10/21 08:09:33;;;;;;;4.25;2.55;;;11.90;99.90;;;;;;5019650;28;20045;-59
2023/10/21 08:12:00;;;;;;;5.18;2.80;;;12.00;99.90;;;;;;5014100;28;20041;-60
2023/10/21 08:14:30;;;;;;;7.30;2.50;;;12.20;99.90;;;;;;5029530;28;20044;-58
2023/10/21 08:16:58;;;;;;;3.28;2.08;;;12.30;99.90;;;;;;5030922;28;20045;-59
2023/10/21 08:19:24;;;;;;;3.15;2.33;;;12.40;99.90;;;;;;5031943;28;20044;-59
2023/10/21 08:21:51;;;;;;;4.60;2.38;;;12.60;99.90;;;;;;5028497;28;20056;-59
2023/10/21 08:24:18;;;;;;;4.03;2.17;;;12.70;99.90;;;;;;5032076;28;20052;-58
2023/10/21 08:26:45;;;;;;;5.72;2.22;;;12.80;99.90;;;;;;5031690;28;20041;-59
2023/10/21 08:29:12;;;;;;;2.65;1.83;;;12.80;99.90;;;;;;5030213;28;20051;-55
2023/10/21 08:31:38;;;;;;;2.08;1.67;;;12.90;99.90;;;;;;5025194;28;20041;-57
2023/10/21 08:34:09;;;;;;;4.03;1.90;;;12.90;99.90;;;;;;5032279;28;20029;-59
2023/10/21 08:36:36;;;;;;;4.38;2.30;;;13.10;99.90;;;;;;5031725;28;20045;-57
2023/10/21 08:39:06;;;;;;;3.65;2.10;;;13.20;99.90;;;;;;5022598;28;20037;-57
2023/10/21 08:41:38;;;;;;;4.70;2.20;;;13.30;99.90;;;;;;5028170;28;20662;-59
2023/10/21 08:44:06;;;;;;;4.55;1.92;;;13.40;99.90;;;;;;5030276;28;20490;-59
2023/10/21 08:46:33;;;;;;;3.65;1.73;;;13.60;99.90;;;;;;5032172;28;20471;-58
2023/10/21 08:49:03;;;;;;;4.43;2.00;;;13.70;99.90;;;;;;5031116;28;20053;-60
2023/10/21 08:51:32;;;;;;;3.30;1.65;;;13.80;99.90;;;;;;5012124;28;20041;-58
2023/10/21 08:54:03;;;;;;;3.85;1.65;;;13.90;99.90;;;;;;5030521;28;20033;-59
2023/10/21 08:56:35;;;;;;;2.78;1.50;;;14.10;99.90;;;;;;5031505;28;20504;-59
2023/10/21 08:59:02;;;;;;;5.15;1.90;;;14.20;99.90;;;;;;5020674;28;20556;-58
2023/10/21 09:01:29;;;;;;;2.95;1.83;;;14.40;99.90;;;;;;5020443;28;20037;-59
2023/10/21 09:03:57;;;;;;;3.60;2.10;;;14.60;99.90;;;;;;5028008;28;20049;-58
2023/10/21 09:06:24;;;;;;;4.13;1.73;;;14.70;99.90;;;;;;5023645;28;20048;-60
2023/10/21 09:08:51;;;;;;;2.17;1.40;;;14.90;99.90;;;;;;5021077;28;20406;-60
2023/10/21 09:11:23;;;;;;;3.08;1.60;;;15.00;99.90;;;;;;5026416;28;20041;-60
2023/10/21 09:13:52;;;;;;;4.05;1.77;;;15.20;99.90;;;;;;5020264;28;20041;-60
2023/10/21 09:16:23;;;;;;;5.38;1.60;;;15.40;99.90;;;;;;5027927;28;20076;-60
2023/10/21 09:19:07;;;;;;;6.15;1.27;;;15.60;99.90;;;;;;5018177;28;20069;-60
2023/10/21 09:21:37;;;;;;;1.70;1.20;;;15.70;99.90;;;;;;5020330;28;20099;-57
2023/10/21 09:24:22;;;;;;;1.60;1.05;;;15.80;99.90;;;;;;5023422;28;20053;-58
2023/10/21 09:26:49;;;;;;;3.08;0.93;;;16.10;99.90;;;;;;5027718;28;21118;-59
2023/10/21 09:29:19;;;;;;;3.00;1.05;;;16.20;99.90;;;;;;5029914;28;20041;-60
2023/10/21 09:31:55;;;;;;;0.82;0.60;;;16.40;99.90;;;;;;5028632;28;20520;-60
2023/10/21 09:34:33;;;;;;;2.00;1.02;;;16.60;99.90;;;;;;5025689;28;20498;-60
2023/10/21 09:37:01;;;;;;;;;;;16.70;99.90;;;;;;5028256;28;20045;-59
2023/10/21 09:39:36;;;;;;;1.27;0.65;;;16.90;99.90;;;;;;5026958;28;20333;-59
2023/10/21 09:42:05;;;;;;;1.17;0.40;;;17.00;99.90;;;;;;5028947;28;20407;-59
2023/10/21 09:44:36;;;;;;;0.50;0.22;;;16.90;99.90;;;;;;5025733;28;20033;-60
2023/10/21 09:47:05;;;;;;;1.10;0.45;;;17.10;99.90;;;;;;5026874;28;20406;-60
2023/10/21 09:49:39;;;;;;;0.35;0.28;;;17.30;99.90;;;;;;5027658;28;20042;-58
2023/10/21 09:52:11;;;;;;;0.30;0.20;;;17.40;99.90;;;;;;5025975;28;20053;-59
2023/10/21 09:55:04;;;;;;;0.30;0.20;;;17.30;99.90;;;;;;5026922;28;20053;-59
2023/10/21 09:57:31;;;;;;;1.92;0.30;;;17.40;99.90;;;;;;5023128;28;20419;-59
2023/10/21 09:59:59;;;;;;;0.50;0.30;;;17.30;99.90;;;;;;5028827;28;20479;-60
2023/10/21 10:02:26;;;;;;;1.00;0.32;;;17.40;99.90;;;;;;5026917;28;20047;-60
2023/10/21 10:04:53;;;;;;;;;;;17.30;99.90;;;;;;5026876;28;20033;-61
2023/10/21 10:07:21;;;;;;;0.38;0.17;;;17.40;99.90;;;;;;5028641;28;19920;-60
2023/10/21 10:10:10;;;;;;;1.25;0.20;;;17.40;99.90;;;;;;5030519;28;20041;-59
2023/10/21 10:12:44;;;;;;;0.10;0.10;;;17.50;99.90;;;;;;5031727;28;20053;-60
2023/10/21 10:15:40;;;;;;;1.65;0.35;;;17.50;99.90;;;;;;5032475;28;20057;-60
2023/10/21 10:18:10;;;;;;;0.22;0.20;;;17.50;99.90;;;;;;5024931;28;20103;-59
2023/10/21 10:20:48;;;;;;;0.43;0.43;;;17.50;99.90;;;;;;5029549;28;20045;-57
2023/10/21 10:23:15;;;;;;;1.48;0.20;;;17.50;99.90;;;;;;5029767;28;20045;-60
2023/10/21 10:25:44;;;;;;;0.28;0.22;;;17.40;99.90;;;;;;5026892;28;20053;-60
2023/10/21 10:28:17;;;;;;;3.75;0.30;;;17.50;99.90;;;;;;5029676;28;20470;-60
2023/10/21 10:30:45;;;;;;;0.55;0.10;;;17.50;99.90;;;;;;5030321;28;20120;-60
2023/10/21 10:33:17;;;;;;;0.30;0.15;;;17.60;99.90;;;;;;5029121;28;20050;-59
2023/10/21 10:35:51;;;;;;;0.57;0.20;;;17.60;99.90;;;;;;5015635;28;20138;-61
2023/10/21 10:38:36;;;;;;;1.27;0.30;;;17.70;99.90;;;;;;5027085;28;20038;-60
2023/10/21 10:41:09;;;;;;;3.85;0.22;;;17.80;99.90;;;;;;5028680;28;20050;-59
2023/10/21 10:43:43;;;;;;;0.30;0.20;;;17.80;99.90;;;;;;5029822;28;20047;-60
2023/10/21 10:46:11;;;;;;;0.57;0.32;;;17.80;99.90;;;;;;5028387;28;20049;-60
2023/10/21 10:48:39;;;;;;;0.47;0.15;;;17.90;99.90;;;;;;5030130;28;20060;-58
2023/10/21 10:51:15;;;;;;;1.60;0.20;;;18.10;99.90;;;;;;5028645;28;20522;-56
2023/10/21 10:53:47;;;;;;;0.52;0.20;;;18.20;99.90;;;;;;5031451;28;20045;-57
2023/10/21 10:56:18;;;;;;;0.38;0.20;;;18.30;99.90;;;;;;5024774;28;20120;-59
2023/10/21 10:58:47;;;;;;;0.28;0.20;;;18.30;99.90;;;;;;5033128;28;20060;-58
2023/10/21 11:01:25;;;;;;;1.48;0.30;;;18.30;99.90;;;;;;5032747;28;20041;-58
2023/10/21 11:04:00;;;;;;;0.20;0.20;;;18.30;99.90;;;;;;5032203;28;20052;-60
2023/10/21 11:06:32;;;;;;;0.75;0.30;;;18.30;99.90;;;;;;5029664;28;20406;-57
2023/10/21 11:08:59;;;;;;;0.20;0.20;;;18.30;99.90;;;;;;5030297;28;20041;-57
2023/10/21 11:11:27;;;;;;;0.63;0.20;;;18.30;99.90;;;;;;5032201;28;20046;-58
2023/10/21 11:13:55;;;;;;;0.45;0.20;;;18.30;99.90;;;;;;5031513;28;20088;-55
2023/10/21 11:16:22;;;;;;;0.77;0.32;;;18.40;99.90;;;;;;5030078;28;20494;-58
2023/10/21 11:18:49;;;;;;;;;;;18.50;99.90;;;;;;5031075;28;20064;-58
2023/10/21 11:21:16;;;;;;;0.10;0.10;;;18.40;99.90;;;;;;5029494;28;20001;-57
2023/10/21 11:23:43;;;;;;;0.75;0.28;;;18.40;99.90;;;;;;5031277;28;20112;-58
2023/10/21 11:26:11;;;;;;;0.20;0.10;;;18.30;99.90;;;;;;5031710;28;20060;-56
2023/10/21 11:28:38;;;;;;;0.50;0.30;;;18.30;99.90;;;;;;5030109;28;20083;-57
2023/10/21 11:31:07;;;;;;;2.42;0.25;;;18.30;99.90;;;;;;5029865;28;20045;-58
2023/10/21 11:33:34;;;;;;;1.00;0.20;;;18.30;99.90;;;;;;5039895;28;20117;-58
2023/10/21 11:36:03;;;;;;;0.22;0.10;;;18.30;99.90;;;;;;5027931;28;20073;-58
2023/10/21 11:38:30;;;;;;;0.30;0.20;;;18.30;99.90;;;;;;5032117;28;20546;-58
2023/10/21 11:40:58;;;;;;;0.25;0.25;;;18.30;99.90;;;;;;5031550;28;20557;-58
2023/10/21 11:43:27;;;;;;;0.20;0.20;;;18.30;99.90;;;;;;5031591;28;20116;-58
2023/10/21 11:45:55;;;;;;;1.23;0.20;;;18.30;99.90;;;;;;5022598;28;20041;-58
2023/10/21 11:48:24;;;;;;;0.77;0.35;;;18.40;99.90;;;;;;5032760;28;20033;-59
2023/10/21 11:50:51;;;;;;;0.28;0.20;;;18.40;99.90;;;;;;5032584;28;20045;-58
2023/10/21 11:53:19;;;;;;;1.38;0.20;;;18.40;99.90;;;;;;5028821;28;20048;-59
2023/10/21 12:04:53;;;;;;;0.70;0.35;;;18.40;99.90;;;;;;5027466;28;20041;-58
2023/10/21 12:26:19;;;;;;;6.35;0.68;;;18.60;99.90;;;;;;5025559;28;20422;-58
2023/10/21 12:37:13;;;;;;;0.77;0.40;;;18.70;99.90;;;;;;5031007;28;20046;-59
2023/10/21 12:39:54;;;;;;;0.35;0.30;;;18.70;99.90;;;;;;5027408;28;20045;-59
2023/10/21 12:45:18;;;;;;;1.92;0.38;;;18.80;99.90;;;;;;4997293;28;20140;-58
2023/10/21 12:47:48;;;;;;;0.65;0.25;;;18.80;99.90;;;;;;5031533;28;20442;-58
2023/10/21 12:50:16;;;;;;;0.60;0.20;;;18.80;99.90;;;;;;5031380;28;20057;-57
2023/10/21 12:52:47;;;;;;;;;;;18.80;99.90;;;;;;5030602;28;20457;-58
2023/10/21 12:55:14;;;;;;;0.30;0.30;;;18.70;99.90;;;;;;5029944;28;20378;-58
2023/10/21 12:57:43;;;;;;;0.45;0.30;;;18.60;99.90;;;;;;5031283;28;20116;-58
2023/10/21 13:00:11;;;;;;;1.95;0.20;;;18.60;99.90;;;;;;5026616;28;20046;-58
2023/10/21 13:02:40;;;;;;;0.88;0.30;;;18.60;99.90;;;;;;5024986;28;20113;-58
2023/10/21 13:05:10;;;;;;;0.50;0.20;;;18.60;99.90;;;;;;5024799;28;20116;-58
2023/10/21 13:07:39;;;;;;;1.75;0.38;;;18.60;99.90;;;;;;5011602;28;20045;-58
2023/10/21 13:10:09;;;;;;;1.60;0.30;;;18.50;99.90;;;;;;5012203;28;20045;-59
2023/10/21 13:12:37;;;;;;;0.52;0.30;;;18.60;99.90;;;;;;5015545;28;20042;-58
2023/10/21 13:15:11;;;;;;;0.50;0.40;;;18.60;99.90;;;;;;5019477;28;20041;-59
2023/10/21 13:17:39;;;;;;;1.08;0.35;;;18.60;99.90;;;;;;5019281;28;20056;-59
2023/10/21 13:20:19;;;;;;;4.07;0.45;;;18.60;99.90;;;;;;5031294;28;20042;-58
2023/10/21 13:22:49;;;;;;;0.25;0.25;;;18.60;99.90;;;;;;5031037;28;20042;-58
2023/10/21 13:25:17;;;;;;;1.08;0.30;;;18.60;99.90;;;;;;5027249;28;20037;-58
2023/10/21 13:27:50;;;;;;;1.50;0.50;;;18.50;99.90;;;;;;5031306;28;20512;-59
2023/10/21 13:30:17;;;;;;;0.50;0.40;;;18.40;99.90;;;;;;5029310;28;20056;-59
2023/10/21 13:32:46;;;;;;;1.02;0.30;;;18.50;99.90;;;;;;5021658;28;20697;-59
2023/10/21 13:35:17;;;;;;;2.38;0.50;;;18.50;99.90;;;;;;5028544;28;20037;-58
2023/10/21 13:37:45;;;;;;;0.85;0.52;;;18.60;99.90;;;;;;5031242;28;20041;-57
2023/10/21 13:40:16;;;;;;;2.88;0.90;;;18.60;99.90;;;;;;5030195;28;20053;-59
2023/10/21 13:42:48;;;;;;;0.55;0.52;;;18.70;99.90;;;;;;5022287;28;20045;-58